sensor_id;sensor_type;location;lat;lon;timestamp;P1;durP1;ratioP1;P2;durP2;ratioP2
52318;SDS011;38258;51.148;14.068;2022-07-23T00:02:14;5.72;;;3.60;;
52318;SDS011;38258;51.148;14.068;2022-07-23T00:04:41;4.93;;;3.72;;
52318;SDS011;38258;51.148;14.068;2022-07-23T00:07:07;6.22;;;3.88;;
52318;SDS011;38258;51.148;14.068;2022-07-23T00:09:34;6.28;;;3.80;;
52318;SDS011;38258;51.148;14.068;2022-07-23T00:12:03;6.38;;;4.03;;
52318;SDS011;38258;51.148;14.068;2022-07-23T00:14:32;5.45;;;3.65;;
52318;SDS011;38258;51.148;14.068;2022-07-23T00:16:58;5.43;;;3.67;;
52318;SDS011;38258;51.148;14.068;2022-07-23T00:19:25;5.88;;;4.28;;
52318;SDS011;38258;51.148;14.068;2022-07-23T00:21:51;5.75;;;3.95;;
52318;SDS011;38258;51.148;14.068;2022-07-23T00:24:17;5.47;;;3.58;;
52318;SDS011;38258;51.148;14.068;2022-07-23T00:26:44;5.25;;;3.58;;
52318;SDS011;38258;51.148;14.068;2022-07-23T00:29:10;4.97;;;3.72;;
52318;SDS011;38258;51.148;14.068;2022-07-23T00:31:38;5.07;;;3.53;;
52318;SDS011;38258;51.148;14.068;2022-07-23T00:34:05;5.13;;;3.65;;
52318;SDS011;38258;51.148;14.068;2022-07-23T00:36:32;5.03;;;4.03;;
52318;SDS011;38258;51.148;14.068;2022-07-23T00:39:02;6.07;;;4.35;;
52318;SDS011;38258;51.148;14.068;2022-07-23T00:41:28;5.13;;;3.75;;
52318;SDS011;38258;51.148;14.068;2022-07-23T00:43:55;6.32;;;4.43;;
52318;SDS011;38258;51.148;14.068;2022-07-23T00:46:21;5.35;;;4.07;;
52318;SDS011;38258;51.148;14.068;2022-07-23T00:48:51;6.82;;;4.55;;
52318;SDS011;38258;51.148;14.068;2022-07-23T00:51:18;6.95;;;4.57;;
52318;SDS011;38258;51.148;14.068;2022-07-23T00:53:44;8.35;;;4.65;;
52318;SDS011;38258;51.148;14.068;2022-07-23T00:56:11;6.40;;;4.38;;
52318;SDS011;38258;51.148;14.068;2022-07-23T00:58:38;6.30;;;4.40;;
52318;SDS011;38258;51.148;14.068;2022-07-23T01:01:07;6.47;;;3.95;;
52318;SDS011;38258;51.148;14.068;2022-07-23T01:03:34;7.22;;;4.60;;
52318;SDS011;38258;51.148;14.068;2022-07-23T01:06:02;7.22;;;4.60;;
52318;SDS011;38258;51.148;14.068;2022-07-23T01:08:29;7.35;;;5.10;;
52318;SDS011;38258;51.148;14.068;2022-07-23T01:10:55;7.20;;;4.57;;
52318;SDS011;38258;51.148;14.068;2022-07-23T01:13:22;6.80;;;4.78;;
52318;SDS011;38258;51.148;14.068;2022-07-23T01:15:49;6.97;;;4.93;;
52318;SDS011;38258;51.148;14.068;2022-07-23T01:18:15;6.05;;;4.63;;
52318;SDS011;38258;51.148;14.068;2022-07-23T01:20:42;7.93;;;4.95;;
52318;SDS011;38258;51.148;14.068;2022-07-23T01:23:10;7.47;;;4.68;;
52318;SDS011;38258;51.148;14.068;2022-07-23T01:25:47;6.95;;;5.22;;
52318;SDS011;38258;51.148;14.068;2022-07-23T01:28:14;7.43;;;4.82;;
52318;SDS011;38258;51.148;14.068;2022-07-23T01:30:41;6.80;;;5.20;;
52318;SDS011;38258;51.148;14.068;2022-07-23T01:33:07;6.75;;;4.63;;
52318;SDS011;38258;51.148;14.068;2022-07-23T01:35:34;6.30;;;4.57;;
52318;SDS011;38258;51.148;14.068;2022-07-23T01:38:04;7.22;;;4.78;;
52318;SDS011;38258;51.148;14.068;2022-07-23T01:40:32;7.15;;;4.95;;
52318;SDS011;38258;51.148;14.068;2022-07-23T01:42:59;7.10;;;4.70;;
52318;SDS011;38258;51.148;14.068;2022-07-23T01:45:25;6.50;;;4.78;;
52318;SDS011;38258;51.148;14.068;2022-07-23T01:47:52;6.78;;;4.88;;
52318;SDS011;38258;51.148;14.068;2022-07-23T01:50:19;8.07;;;4.88;;
52318;SDS011;38258;51.148;14.068;2022-07-23T01:53:04;7.05;;;5.10;;
52318;SDS011;38258;51.148;14.068;2022-07-23T01:55:35;7.20;;;5.00;;
52318;SDS011;38258;51.148;14.068;2022-07-23T01:58:02;8.25;;;4.80;;
52318;SDS011;38258;51.148;14.068;2022-07-23T02:00:30;6.57;;;4.93;;
52318;SDS011;38258;51.148;14.068;2022-07-23T02:03:00;6.80;;;4.80;;
52318;SDS011;38258;51.148;14.068;2022-07-23T02:05:27;7.80;;;4.82;;
52318;SDS011;38258;51.148;14.068;2022-07-23T02:07:55;6.05;;;4.35;;
52318;SDS011;38258;51.148;14.068;2022-07-23T02:10:22;7.38;;;4.63;;
52318;SDS011;38258;51.148;14.068;2022-07-23T02:12:51;7.45;;;5.00;;
52318;SDS011;38258;51.148;14.068;2022-07-23T02:15:17;6.28;;;4.85;;
52318;SDS011;38258;51.148;14.068;2022-07-23T02:17:44;6.32;;;4.55;;
52318;SDS011;38258;51.148;14.068;2022-07-23T02:20:11;7.25;;;4.75;;
52318;SDS011;38258;51.148;14.068;2022-07-23T02:22:38;7.80;;;4.43;;
52318;SDS011;38258;51.148;14.068;2022-07-23T02:25:06;5.97;;;4.50;;
52318;SDS011;38258;51.148;14.068;2022-07-23T02:27:33;6.28;;;4.53;;
52318;SDS011;38258;51.148;14.068;2022-07-23T02:30:04;7.90;;;5.00;;
52318;SDS011;38258;51.148;14.068;2022-07-23T02:32:33;5.75;;;4.32;;
52318;SDS011;38258;51.148;14.068;2022-07-23T02:34:59;6.95;;;4.85;;
52318;SDS011;38258;51.148;14.068;2022-07-23T02:37:26;6.88;;;4.90;;
52318;SDS011;38258;51.148;14.068;2022-07-23T02:39:53;6.03;;;4.43;;
52318;SDS011;38258;51.148;14.068;2022-07-23T02:42:19;7.55;;;4.90;;
52318;SDS011;38258;51.148;14.068;2022-07-23T02:44:47;7.07;;;4.93;;
52318;SDS011;38258;51.148;14.068;2022-07-23T02:47:15;9.48;;;5.07;;
52318;SDS011;38258;51.148;14.068;2022-07-23T02:49:43;7.65;;;5.35;;
52318;SDS011;38258;51.148;14.068;2022-07-23T02:52:10;7.28;;;4.90;;
52318;SDS011;38258;51.148;14.068;2022-07-23T02:54:37;7.07;;;4.78;;
52318;SDS011;38258;51.148;14.068;2022-07-23T02:57:04;6.93;;;4.75;;
52318;SDS011;38258;51.148;14.068;2022-07-23T02:59:31;6.90;;;4.95;;
52318;SDS011;38258;51.148;14.068;2022-07-23T03:01:57;7.35;;;5.13;;
52318;SDS011;38258;51.148;14.068;2022-07-23T03:04:25;7.47;;;4.85;;
52318;SDS011;38258;51.148;14.068;2022-07-23T03:06:52;7.28;;;4.88;;
52318;SDS011;38258;51.148;14.068;2022-07-23T03:09:18;7.43;;;5.20;;
52318;SDS011;38258;51.148;14.068;2022-07-23T03:11:45;7.10;;;4.90;;
52318;SDS011;38258;51.148;14.068;2022-07-23T03:14:12;7.80;;;5.07;;
52318;SDS011;38258;51.148;14.068;2022-07-23T03:16:38;7.07;;;5.13;;
52318;SDS011;38258;51.148;14.068;2022-07-23T03:19:05;6.82;;;5.15;;
52318;SDS011;38258;51.148;14.068;2022-07-23T03:21:33;7.25;;;5.05;;
52318;SDS011;38258;51.148;14.068;2022-07-23T03:24:04;6.75;;;5.07;;
52318;SDS011;38258;51.148;14.068;2022-07-23T03:26:30;7.70;;;5.15;;
52318;SDS011;38258;51.148;14.068;2022-07-23T03:28:57;6.82;;;5.05;;
52318;SDS011;38258;51.148;14.068;2022-07-23T03:31:24;7.95;;;5.45;;
52318;SDS011;38258;51.148;14.068;2022-07-23T03:33:51;7.50;;;5.18;;
52318;SDS011;38258;51.148;14.068;2022-07-23T03:36:18;8.95;;;5.70;;
52318;SDS011;38258;51.148;14.068;2022-07-23T03:38:46;7.78;;;5.50;;
52318;SDS011;38258;51.148;14.068;2022-07-23T03:41:13;9.48;;;5.90;;
52318;SDS011;38258;51.148;14.068;2022-07-23T03:43:40;8.13;;;5.80;;
52318;SDS011;38258;51.148;14.068;2022-07-23T03:46:07;9.30;;;6.00;;
52318;SDS011;38258;51.148;14.068;2022-07-23T03:48:35;9.27;;;5.88;;
52318;SDS011;38258;51.148;14.068;2022-07-23T03:51:02;8.13;;;5.55;;
52318;SDS011;38258;51.148;14.068;2022-07-23T03:53:29;7.60;;;5.50;;
52318;SDS011;38258;51.148;14.068;2022-07-23T03:55:57;8.98;;;5.75;;
52318;SDS011;38258;51.148;14.068;2022-07-23T03:58:24;8.82;;;5.68;;
52318;SDS011;38258;51.148;14.068;2022-07-23T04:00:51;8.23;;;5.32;;
52318;SDS011;38258;51.148;14.068;2022-07-23T04:03:18;7.47;;;5.47;;
52318;SDS011;38258;51.148;14.068;2022-07-23T04:05:45;7.88;;;5.63;;
52318;SDS011;38258;51.148;14.068;2022-07-23T04:08:13;8.52;;;5.43;;
52318;SDS011;38258;51.148;14.068;2022-07-23T04:10:43;9.18;;;5.65;;
52318;SDS011;38258;51.148;14.068;2022-07-23T04:13:12;9.07;;;6.10;;
52318;SDS011;38258;51.148;14.068;2022-07-23T04:15:39;9.70;;;5.35;;
52318;SDS011;38258;51.148;14.068;2022-07-23T04:18:06;8.70;;;5.72;;
52318;SDS011;38258;51.148;14.068;2022-07-23T04:20:56;9.38;;;6.13;;
52318;SDS011;38258;51.148;14.068;2022-07-23T04:23:23;8.98;;;6.25;;
52318;SDS011;38258;51.148;14.068;2022-07-23T04:25:50;8.02;;;5.88;;
52318;SDS011;38258;51.148;14.068;2022-07-23T04:28:18;7.25;;;5.65;;
52318;SDS011;38258;51.148;14.068;2022-07-23T04:30:45;8.60;;;5.68;;
52318;SDS011;38258;51.148;14.068;2022-07-23T04:33:14;9.07;;;5.90;;
52318;SDS011;38258;51.148;14.068;2022-07-23T04:35:40;7.85;;;5.75;;
52318;SDS011;38258;51.148;14.068;2022-07-23T04:38:13;9.05;;;5.95;;
52318;SDS011;38258;51.148;14.068;2022-07-23T04:40:41;8.23;;;5.50;;
52318;SDS011;38258;51.148;14.068;2022-07-23T04:43:08;8.73;;;5.70;;
52318;SDS011;38258;51.148;14.068;2022-07-23T04:45:43;7.35;;;5.47;;
52318;SDS011;38258;51.148;14.068;2022-07-23T04:48:10;7.25;;;5.60;;
52318;SDS011;38258;51.148;14.068;2022-07-23T04:50:37;8.93;;;6.32;;
52318;SDS011;38258;51.148;14.068;2022-07-23T04:53:05;8.73;;;6.07;;
52318;SDS011;38258;51.148;14.068;2022-07-23T04:55:32;8.52;;;5.60;;
52318;SDS011;38258;51.148;14.068;2022-07-23T04:57:59;8.40;;;5.68;;
52318;SDS011;38258;51.148;14.068;2022-07-23T05:00:26;8.90;;;5.88;;
52318;SDS011;38258;51.148;14.068;2022-07-23T05:02:54;7.45;;;5.70;;
52318;SDS011;38258;51.148;14.068;2022-07-23T05:05:21;8.57;;;5.93;;
52318;SDS011;38258;51.148;14.068;2022-07-23T05:07:49;7.95;;;5.75;;
52318;SDS011;38258;51.148;14.068;2022-07-23T05:10:16;7.72;;;5.35;;
52318;SDS011;38258;51.148;14.068;2022-07-23T05:12:43;8.35;;;5.80;;
52318;SDS011;38258;51.148;14.068;2022-07-23T05:15:10;7.45;;;5.78;;
52318;SDS011;38258;51.148;14.068;2022-07-23T05:17:37;7.18;;;5.43;;
52318;SDS011;38258;51.148;14.068;2022-07-23T05:20:11;8.57;;;5.95;;
52318;SDS011;38258;51.148;14.068;2022-07-23T05:22:39;7.30;;;5.63;;
52318;SDS011;38258;51.148;14.068;2022-07-23T05:25:06;7.80;;;5.50;;
52318;SDS011;38258;51.148;14.068;2022-07-23T05:27:34;7.43;;;5.22;;
52318;SDS011;38258;51.148;14.068;2022-07-23T05:30:02;8.40;;;5.82;;
52318;SDS011;38258;51.148;14.068;2022-07-23T05:32:31;8.63;;;6.15;;
52318;SDS011;38258;51.148;14.068;2022-07-23T05:35:08;9.15;;;6.00;;
52318;SDS011;38258;51.148;14.068;2022-07-23T05:37:40;7.90;;;5.93;;
52318;SDS011;38258;51.148;14.068;2022-07-23T05:40:07;8.75;;;5.97;;
52318;SDS011;38258;51.148;14.068;2022-07-23T05:42:36;8.70;;;5.93;;
52318;SDS011;38258;51.148;14.068;2022-07-23T05:45:05;8.43;;;6.03;;
52318;SDS011;38258;51.148;14.068;2022-07-23T05:47:39;8.55;;;5.90;;
52318;SDS011;38258;51.148;14.068;2022-07-23T05:50:07;8.40;;;6.40;;
52318;SDS011;38258;51.148;14.068;2022-07-23T05:52:42;9.07;;;6.20;;
52318;SDS011;38258;51.148;14.068;2022-07-23T05:55:28;8.35;;;5.68;;
52318;SDS011;38258;51.148;14.068;2022-07-23T05:57:57;9.45;;;6.72;;
52318;SDS011;38258;51.148;14.068;2022-07-23T06:00:26;8.13;;;5.85;;
52318;SDS011;38258;51.148;14.068;2022-07-23T06:02:53;8.57;;;6.20;;
52318;SDS011;38258;51.148;14.068;2022-07-23T06:05:20;7.78;;;5.60;;
52318;SDS011;38258;51.148;14.068;2022-07-23T06:07:49;9.48;;;6.38;;
52318;SDS011;38258;51.148;14.068;2022-07-23T06:10:16;8.10;;;5.65;;
52318;SDS011;38258;51.148;14.068;2022-07-23T06:12:43;9.13;;;5.75;;
52318;SDS011;38258;51.148;14.068;2022-07-23T06:15:10;9.05;;;5.97;;
52318;SDS011;38258;51.148;14.068;2022-07-23T06:17:38;10.18;;;6.00;;
52318;SDS011;38258;51.148;14.068;2022-07-23T06:20:05;8.75;;;6.10;;
52318;SDS011;38258;51.148;14.068;2022-07-23T06:22:36;7.78;;;5.57;;
52318;SDS011;38258;51.148;14.068;2022-07-23T06:25:05;7.68;;;5.60;;
52318;SDS011;38258;51.148;14.068;2022-07-23T06:27:33;8.55;;;5.68;;
52318;SDS011;38258;51.148;14.068;2022-07-23T06:30:00;7.43;;;5.40;;
52318;SDS011;38258;51.148;14.068;2022-07-23T06:32:27;6.65;;;4.78;;
52318;SDS011;38258;51.148;14.068;2022-07-23T06:34:53;8.55;;;5.30;;
52318;SDS011;38258;51.148;14.068;2022-07-23T06:37:20;7.38;;;5.13;;
52318;SDS011;38258;51.148;14.068;2022-07-23T06:39:47;7.80;;;5.20;;
52318;SDS011;38258;51.148;14.068;2022-07-23T06:42:15;8.23;;;5.38;;
52318;SDS011;38258;51.148;14.068;2022-07-23T06:44:43;5.97;;;4.35;;
52318;SDS011;38258;51.148;14.068;2022-07-23T06:47:10;6.93;;;4.95;;
52318;SDS011;38258;51.148;14.068;2022-07-23T06:49:37;7.72;;;4.80;;
52318;SDS011;38258;51.148;14.068;2022-07-23T06:52:06;7.22;;;4.47;;
52318;SDS011;38258;51.148;14.068;2022-07-23T06:54:33;6.13;;;4.65;;
52318;SDS011;38258;51.148;14.068;2022-07-23T06:57:00;6.03;;;4.40;;
52318;SDS011;38258;51.148;14.068;2022-07-23T06:59:28;6.18;;;4.68;;
52318;SDS011;38258;51.148;14.068;2022-07-23T07:01:55;7.43;;;4.78;;
52318;SDS011;38258;51.148;14.068;2022-07-23T07:04:22;6.82;;;4.85;;
52318;SDS011;38258;51.148;14.068;2022-07-23T07:06:49;7.28;;;4.85;;
52318;SDS011;38258;51.148;14.068;2022-07-23T07:09:16;6.97;;;4.88;;
52318;SDS011;38258;51.148;14.068;2022-07-23T07:11:43;7.32;;;5.03;;
52318;SDS011;38258;51.148;14.068;2022-07-23T07:14:10;7.95;;;5.32;;
52318;SDS011;38258;51.148;14.068;2022-07-23T07:16:38;7.80;;;5.57;;
52318;SDS011;38258;51.148;14.068;2022-07-23T07:19:05;9.68;;;6.13;;
52318;SDS011;38258;51.148;14.068;2022-07-23T07:21:32;10.18;;;6.22;;
52318;SDS011;38258;51.148;14.068;2022-07-23T07:23:59;10.23;;;6.85;;
52318;SDS011;38258;51.148;14.068;2022-07-23T07:26:25;11.60;;;6.68;;
52318;SDS011;38258;51.148;14.068;2022-07-23T07:28:52;9.38;;;6.25;;
52318;SDS011;38258;51.148;14.068;2022-07-23T07:31:19;10.43;;;7.28;;
52318;SDS011;38258;51.148;14.068;2022-07-23T07:33:47;9.13;;;6.70;;
52318;SDS011;38258;51.148;14.068;2022-07-23T07:36:14;9.27;;;6.50;;
52318;SDS011;38258;51.148;14.068;2022-07-23T07:38:41;9.85;;;7.05;;
52318;SDS011;38258;51.148;14.068;2022-07-23T07:41:08;8.20;;;6.10;;
52318;SDS011;38258;51.148;14.068;2022-07-23T07:43:35;7.55;;;5.80;;
52318;SDS011;38258;51.148;14.068;2022-07-23T07:46:03;8.00;;;6.18;;
52318;SDS011;38258;51.148;14.068;2022-07-23T07:48:30;7.72;;;5.28;;
52318;SDS011;38258;51.148;14.068;2022-07-23T07:50:58;8.95;;;5.85;;
52318;SDS011;38258;51.148;14.068;2022-07-23T07:53:25;7.78;;;5.50;;
52318;SDS011;38258;51.148;14.068;2022-07-23T07:55:51;9.68;;;5.55;;
52318;SDS011;38258;51.148;14.068;2022-07-23T07:58:18;7.88;;;5.20;;
52318;SDS011;38258;51.148;14.068;2022-07-23T08:00:45;7.90;;;5.43;;
52318;SDS011;38258;51.148;14.068;2022-07-23T08:03:12;6.97;;;5.10;;
52318;SDS011;38258;51.148;14.068;2022-07-23T08:05:39;6.60;;;4.90;;
52318;SDS011;38258;51.148;14.068;2022-07-23T08:08:07;7.30;;;5.05;;
52318;SDS011;38258;51.148;14.068;2022-07-23T08:10:39;7.78;;;5.10;;
52318;SDS011;38258;51.148;14.068;2022-07-23T08:13:06;7.93;;;5.20;;
52318;SDS011;38258;51.148;14.068;2022-07-23T08:15:33;6.38;;;5.07;;
52318;SDS011;38258;51.148;14.068;2022-07-23T08:18:01;7.00;;;4.30;;
52318;SDS011;38258;51.148;14.068;2022-07-23T08:20:28;9.05;;;4.78;;
52318;SDS011;38258;51.148;14.068;2022-07-23T08:22:56;6.63;;;4.35;;
52318;SDS011;38258;51.148;14.068;2022-07-23T08:25:26;6.38;;;4.20;;
52318;SDS011;38258;51.148;14.068;2022-07-23T08:27:54;6.97;;;4.38;;
52318;SDS011;38258;51.148;14.068;2022-07-23T08:30:22;7.70;;;4.90;;
52318;SDS011;38258;51.148;14.068;2022-07-23T08:32:49;7.07;;;4.70;;
52318;SDS011;38258;51.148;14.068;2022-07-23T08:35:18;7.60;;;4.90;;
52318;SDS011;38258;51.148;14.068;2022-07-23T08:37:48;5.45;;;4.38;;
52318;SDS011;38258;51.148;14.068;2022-07-23T08:40:15;6.93;;;4.68;;
52318;SDS011;38258;51.148;14.068;2022-07-23T08:42:43;8.65;;;5.05;;
52318;SDS011;38258;51.148;14.068;2022-07-23T08:45:14;6.47;;;4.60;;
52318;SDS011;38258;51.148;14.068;2022-07-23T08:47:46;6.80;;;4.75;;
52318;SDS011;38258;51.148;14.068;2022-07-23T08:50:15;8.13;;;5.20;;
52318;SDS011;38258;51.148;14.068;2022-07-23T08:52:42;7.05;;;5.20;;
52318;SDS011;38258;51.148;14.068;2022-07-23T08:55:09;7.15;;;4.38;;
52318;SDS011;38258;51.148;14.068;2022-07-23T08:57:36;7.32;;;5.40;;
52318;SDS011;38258;51.148;14.068;2022-07-23T09:00:05;6.90;;;4.97;;
52318;SDS011;38258;51.148;14.068;2022-07-23T09:02:38;5.85;;;4.40;;
52318;SDS011;38258;51.148;14.068;2022-07-23T09:05:05;8.57;;;5.10;;
52318;SDS011;38258;51.148;14.068;2022-07-23T09:07:32;7.55;;;5.03;;
52318;SDS011;38258;51.148;14.068;2022-07-23T09:10:06;6.80;;;4.72;;
52318;SDS011;38258;51.148;14.068;2022-07-23T09:12:35;7.50;;;5.00;;
52318;SDS011;38258;51.148;14.068;2022-07-23T09:15:08;9.38;;;5.00;;
52318;SDS011;38258;51.148;14.068;2022-07-23T09:17:38;7.47;;;5.50;;
52318;SDS011;38258;51.148;14.068;2022-07-23T09:20:08;7.00;;;5.25;;
52318;SDS011;38258;51.148;14.068;2022-07-23T09:22:36;6.68;;;5.03;;
52318;SDS011;38258;51.148;14.068;2022-07-23T09:25:04;7.82;;;4.82;;
52318;SDS011;38258;51.148;14.068;2022-07-23T09:27:46;7.65;;;5.13;;
52318;SDS011;38258;51.148;14.068;2022-07-23T09:30:16;6.90;;;5.40;;
52318;SDS011;38258;51.148;14.068;2022-07-23T09:32:43;7.15;;;5.60;;
52318;SDS011;38258;51.148;14.068;2022-07-23T09:35:09;6.82;;;5.63;;
52318;SDS011;38258;51.148;14.068;2022-07-23T09:37:36;9.30;;;5.40;;
52318;SDS011;38258;51.148;14.068;2022-07-23T09:40:03;6.15;;;4.88;;
52318;SDS011;38258;51.148;14.068;2022-07-23T09:42:31;7.97;;;5.45;;
52318;SDS011;38258;51.148;14.068;2022-07-23T09:44:58;6.43;;;4.70;;
52318;SDS011;38258;51.148;14.068;2022-07-23T09:47:27;6.68;;;4.78;;
52318;SDS011;38258;51.148;14.068;2022-07-23T09:49:58;6.50;;;4.93;;
52318;SDS011;38258;51.148;14.068;2022-07-23T09:52:26;6.85;;;4.60;;
52318;SDS011;38258;51.148;14.068;2022-07-23T09:54:57;6.93;;;4.85;;
52318;SDS011;38258;51.148;14.068;2022-07-23T09:57:25;7.50;;;5.35;;
52318;SDS011;38258;51.148;14.068;2022-07-23T09:59:52;6.68;;;4.57;;
52318;SDS011;38258;51.148;14.068;2022-07-23T10:02:19;6.85;;;4.55;;
52318;SDS011;38258;51.148;14.068;2022-07-23T10:05:07;6.82;;;4.60;;
52318;SDS011;38258;51.148;14.068;2022-07-23T10:08:06;6.32;;;4.88;;
52318;SDS011;38258;51.148;14.068;2022-07-23T10:11:15;5.88;;;4.60;;
52318;SDS011;38258;51.148;14.068;2022-07-23T10:13:54;6.22;;;4.88;;
52318;SDS011;38258;51.148;14.068;2022-07-23T10:16:48;6.80;;;4.70;;
52318;SDS011;38258;51.148;14.068;2022-07-23T10:19:15;6.50;;;4.70;;
52318;SDS011;38258;51.148;14.068;2022-07-23T10:21:45;6.97;;;4.90;;
52318;SDS011;38258;51.148;14.068;2022-07-23T10:24:20;7.30;;;4.90;;
52318;SDS011;38258;51.148;14.068;2022-07-23T10:26:58;7.97;;;5.28;;
52318;SDS011;38258;51.148;14.068;2022-07-23T10:29:41;7.60;;;4.80;;
52318;SDS011;38258;51.148;14.068;2022-07-23T10:34:44;6.40;;;4.60;;
52318;SDS011;38258;51.148;14.068;2022-07-23T10:37:21;6.43;;;4.47;;
52318;SDS011;38258;51.148;14.068;2022-07-23T10:42:38;5.72;;;4.80;;
52318;SDS011;38258;51.148;14.068;2022-07-23T10:45:28;6.40;;;4.65;;
52318;SDS011;38258;51.148;14.068;2022-07-23T10:48:11;7.38;;;4.90;;
52318;SDS011;38258;51.148;14.068;2022-07-23T10:50:39;6.13;;;4.90;;
52318;SDS011;38258;51.148;14.068;2022-07-23T10:53:17;6.63;;;5.10;;
52318;SDS011;38258;51.148;14.068;2022-07-23T10:55:48;5.88;;;4.75;;
52318;SDS011;38258;51.148;14.068;2022-07-23T10:58:17;5.90;;;4.80;;
52318;SDS011;38258;51.148;14.068;2022-07-23T11:00:45;7.07;;;5.28;;
52318;SDS011;38258;51.148;14.068;2022-07-23T11:03:28;7.40;;;4.53;;
52318;SDS011;38258;51.148;14.068;2022-07-23T11:05:58;6.72;;;4.63;;
52318;SDS011;38258;51.148;14.068;2022-07-23T11:08:26;6.03;;;5.07;;
52318;SDS011;38258;51.148;14.068;2022-07-23T11:10:54;6.40;;;4.97;;
52318;SDS011;38258;51.148;14.068;2022-07-23T11:13:37;8.00;;;5.78;;
52318;SDS011;38258;51.148;14.068;2022-07-23T11:16:15;7.03;;;5.30;;
52318;SDS011;38258;51.148;14.068;2022-07-23T11:19:05;6.45;;;5.05;;
52318;SDS011;38258;51.148;14.068;2022-07-23T11:21:42;6.25;;;4.80;;
52318;SDS011;38258;51.148;14.068;2022-07-23T11:24:11;6.68;;;5.25;;
52318;SDS011;38258;51.148;14.068;2022-07-23T11:29:43;6.30;;;4.88;;
52318;SDS011;38258;51.148;14.068;2022-07-23T11:32:18;7.85;;;5.00;;
52318;SDS011;38258;51.148;14.068;2022-07-23T11:34:49;6.30;;;4.38;;
52318;SDS011;38258;51.148;14.068;2022-07-23T11:37:29;7.60;;;5.80;;
52318;SDS011;38258;51.148;14.068;2022-07-23T11:40:00;7.18;;;5.30;;
52318;SDS011;38258;51.148;14.068;2022-07-23T11:42:29;7.78;;;6.18;;
52318;SDS011;38258;51.148;14.068;2022-07-23T11:44:56;6.32;;;4.75;;
52318;SDS011;38258;51.148;14.068;2022-07-23T11:47:23;7.03;;;5.40;;
52318;SDS011;38258;51.148;14.068;2022-07-23T11:49:54;6.95;;;5.15;;
52318;SDS011;38258;51.148;14.068;2022-07-23T11:52:21;6.70;;;5.03;;
52318;SDS011;38258;51.148;14.068;2022-07-23T11:54:49;5.28;;;4.22;;
52318;SDS011;38258;51.148;14.068;2022-07-23T11:57:19;6.53;;;4.60;;
52318;SDS011;38258;51.148;14.068;2022-07-23T11:59:46;6.40;;;4.32;;
52318;SDS011;38258;51.148;14.068;2022-07-23T12:02:15;6.18;;;4.30;;
52318;SDS011;38258;51.148;14.068;2022-07-23T12:04:42;7.25;;;4.38;;
52318;SDS011;38258;51.148;14.068;2022-07-23T12:07:23;6.38;;;4.38;;
52318;SDS011;38258;51.148;14.068;2022-07-23T12:09:57;5.53;;;3.97;;
52318;SDS011;38258;51.148;14.068;2022-07-23T12:12:26;6.13;;;4.40;;
52318;SDS011;38258;51.148;14.068;2022-07-23T12:14:53;6.50;;;4.20;;
52318;SDS011;38258;51.148;14.068;2022-07-23T12:17:21;6.15;;;4.75;;
52318;SDS011;38258;51.148;14.068;2022-07-23T12:19:54;6.72;;;5.22;;
52318;SDS011;38258;51.148;14.068;2022-07-23T12:22:21;4.90;;;2.70;;
52318;SDS011;38258;51.148;14.068;2022-07-23T12:24:57;6.72;;;4.97;;
52318;SDS011;38258;51.148;14.068;2022-07-23T12:27:26;6.28;;;4.40;;
52318;SDS011;38258;51.148;14.068;2022-07-23T12:29:53;6.88;;;4.90;;
52318;SDS011;38258;51.148;14.068;2022-07-23T12:32:21;5.93;;;4.22;;
52318;SDS011;38258;51.148;14.068;2022-07-23T12:34:50;5.55;;;4.32;;
52318;SDS011;38258;51.148;14.068;2022-07-23T12:37:29;6.32;;;3.70;;
52318;SDS011;38258;51.148;14.068;2022-07-23T12:39:57;5.90;;;4.57;;
52318;SDS011;38258;51.148;14.068;2022-07-23T12:42:23;6.45;;;4.82;;
52318;SDS011;38258;51.148;14.068;2022-07-23T12:45:05;6.63;;;4.78;;
52318;SDS011;38258;51.148;14.068;2022-07-23T12:53:08;7.93;;;5.68;;
52318;SDS011;38258;51.148;14.068;2022-07-23T12:55:37;6.80;;;5.43;;
52318;SDS011;38258;51.148;14.068;2022-07-23T12:58:09;8.48;;;5.22;;
52318;SDS011;38258;51.148;14.068;2022-07-23T13:00:55;7.22;;;5.22;;
52318;SDS011;38258;51.148;14.068;2022-07-23T13:03:24;7.07;;;5.25;;
52318;SDS011;38258;51.148;14.068;2022-07-23T13:05:52;7.07;;;5.18;;
52318;SDS011;38258;51.148;14.068;2022-07-23T13:08:20;7.13;;;5.40;;
52318;SDS011;38258;51.148;14.068;2022-07-23T13:10:47;6.65;;;3.63;;
52318;SDS011;38258;51.148;14.068;2022-07-23T13:13:16;6.25;;;5.25;;
52318;SDS011;38258;51.148;14.068;2022-07-23T13:15:45;6.90;;;4.95;;
52318;SDS011;38258;51.148;14.068;2022-07-23T13:18:13;7.45;;;5.45;;
52318;SDS011;38258;51.148;14.068;2022-07-23T13:20:39;9.05;;;5.78;;
52318;SDS011;38258;51.148;14.068;2022-07-23T13:23:06;8.45;;;5.60;;
52318;SDS011;38258;51.148;14.068;2022-07-23T13:25:33;8.82;;;6.43;;
52318;SDS011;38258;51.148;14.068;2022-07-23T13:27:59;8.05;;;5.78;;
52318;SDS011;38258;51.148;14.068;2022-07-23T13:30:26;7.53;;;5.90;;
52318;SDS011;38258;51.148;14.068;2022-07-23T13:32:53;7.18;;;5.47;;
52318;SDS011;38258;51.148;14.068;2022-07-23T13:35:21;8.48;;;6.45;;
52318;SDS011;38258;51.148;14.068;2022-07-23T13:37:48;9.75;;;5.38;;
52318;SDS011;38258;51.148;14.068;2022-07-23T13:40:14;10.13;;;5.93;;
52318;SDS011;38258;51.148;14.068;2022-07-23T13:42:41;7.95;;;6.03;;
52318;SDS011;38258;51.148;14.068;2022-07-23T13:45:07;9.13;;;6.65;;
52318;SDS011;38258;51.148;14.068;2022-07-23T13:47:34;9.73;;;6.72;;
52318;SDS011;38258;51.148;14.068;2022-07-23T13:50:01;8.23;;;6.38;;
52318;SDS011;38258;51.148;14.068;2022-07-23T13:52:29;10.63;;;6.72;;
52318;SDS011;38258;51.148;14.068;2022-07-23T13:54:56;9.77;;;7.25;;
52318;SDS011;38258;51.148;14.068;2022-07-23T13:57:23;10.07;;;6.80;;
52318;SDS011;38258;51.148;14.068;2022-07-23T13:59:49;8.35;;;5.95;;
52318;SDS011;38258;51.148;14.068;2022-07-23T14:02:16;8.55;;;6.03;;
52318;SDS011;38258;51.148;14.068;2022-07-23T14:04:43;8.82;;;6.18;;
52318;SDS011;38258;51.148;14.068;2022-07-23T14:07:10;7.78;;;6.03;;
52318;SDS011;38258;51.148;14.068;2022-07-23T14:09:38;8.45;;;6.00;;
52318;SDS011;38258;51.148;14.068;2022-07-23T14:12:05;7.55;;;5.53;;
52318;SDS011;38258;51.148;14.068;2022-07-23T14:14:33;9.73;;;5.40;;
52318;SDS011;38258;51.148;14.068;2022-07-23T14:17:00;7.15;;;5.47;;
52318;SDS011;38258;51.148;14.068;2022-07-23T14:19:27;9.40;;;5.65;;
52318;SDS011;38258;51.148;14.068;2022-07-23T14:21:54;6.63;;;5.00;;
52318;SDS011;38258;51.148;14.068;2022-07-23T14:24:21;7.75;;;5.60;;
52318;SDS011;38258;51.148;14.068;2022-07-23T14:26:51;8.13;;;5.68;;
52318;SDS011;38258;51.148;14.068;2022-07-23T14:29:18;7.35;;;5.30;;
52318;SDS011;38258;51.148;14.068;2022-07-23T14:31:44;7.60;;;5.35;;
52318;SDS011;38258;51.148;14.068;2022-07-23T14:34:11;7.40;;;5.25;;
52318;SDS011;38258;51.148;14.068;2022-07-23T14:36:38;7.78;;;5.60;;
52318;SDS011;38258;51.148;14.068;2022-07-23T14:39:04;7.28;;;5.20;;
52318;SDS011;38258;51.148;14.068;2022-07-23T14:41:33;8.52;;;5.22;;
52318;SDS011;38258;51.148;14.068;2022-07-23T14:44:01;9.32;;;5.53;;
52318;SDS011;38258;51.148;14.068;2022-07-23T14:46:28;7.38;;;5.43;;
52318;SDS011;38258;51.148;14.068;2022-07-23T14:48:55;6.72;;;5.05;;
52318;SDS011;38258;51.148;14.068;2022-07-23T14:51:22;7.03;;;5.00;;
52318;SDS011;38258;51.148;14.068;2022-07-23T14:53:49;6.72;;;4.95;;
52318;SDS011;38258;51.148;14.068;2022-07-23T14:56:17;6.90;;;5.15;;
52318;SDS011;38258;51.148;14.068;2022-07-23T14:58:44;7.30;;;4.97;;